Tiempo atmosférico en la estación meteorológica de A Coruña, A Coruña (58 m.)



Fecha
DESCASC
Temp. máxima en grados centígrados (hora)
DESCASC
Temp. mínima en grados centígrados (hora)
DESCASC
Temp. media en grados centígrados
DESCASC
Racha de viento máxima en m/sg (hora)
DESCASC
Velocidad máxima media en intervalos de 10 minutos(hora)
DESCASC
Precipitaciones diarias en mm
DESCASC
Precipitaciones de 00:00 a 06:00 en mm
DESCASC
Precipitaciones de 06:00 a 12:00 en mm
DESCASC
Precipitaciones de 12:00 a 18:00 en mm
DESCASC
Precipitaciones de 18:00 a 24:00 en mm
DESCASC
18-04-2019 16.9 (11:40) 11.6 (07:50) 14.3 9.44 (19:30) 5.83 (18:00) 3.2 3 0 0.2 0
17-04-2019 18.7 (15:20) 12.8 (05:00) 15.8 12.22 (16:50) 7.5 (16:50) 4.2 0 0 0 4.2
16-04-2019 19.8 (16:20) 9.8 (00:00) 14.8 9.44 (12:10) 4.72 (12:10) 0 0 0 0 0
15-04-2019 18.2 (02:10) 11.9 (00:00) 15.1 13.61 (13:40) 7.5 (10:20) 2 0.8 0.6 0.6 0
14-04-2019 22.5 (17:20) 14.7 (00:00) 18.6 10.83 (17:10) 6.11 (18:10) 0 0 0 0 0
13-04-2019 20.9 (14:50) 11.9 (00:00) 16.4 8.33 (17:40) 4.72 (18:50) 0 0 0 0 0
12-04-2019 16.3 (16:50) 7.5 (00:00) 11.9 6.39 (10:50) 4.17 (16:40) 0 0 0 0 0
11-04-2019 14.6 (13:00) 7.1 (00:00) 10.9 9.44 (19:10) 6.39 (18:20) 0 0 0 0 0
10-04-2019 14.9 (15:40) 11 (00:00) 12.9 12.78 (04:40) 8.33 (05:30) 1 0.4 0.6 0 0
09-04-2019 15.4 (14:00) 8.7 (00:00) 12 17.5 (13:30) 8.89 (16:20) 12.4 4 2.8 1.2 4.4
08-04-2019 16.2 (14:30) 9.8 (00:00) 13 17.78 (15:00) 10 (15:00) 8.4 4 0 0 4.4
07-04-2019 14.1 (14:30) 7.9 (00:00) 11 12.78 (18:40) 6.11 (17:30) 14.8 3 0 4 7.8
06-04-2019 12.9 (17:10) 7.1 (00:00) 10 17.5 (14:10) 11.39 (14:20) 13.6 6.8 5.6 1.2 0
05-04-2019 11 (18:00) 5.8 (00:00) 8.4 13.61 (22:40) 8.33 (13:10) 6.8 0 0.2 2.6 4
04-04-2019 11.8 (14:00) 7 (00:00) 9.4 13.61 (12:00) 7.78 (12:30) 8.2 0.6 0.4 4.4 2.8
03-04-2019 12.1 (14:30) 8.4 (00:00) 10.3 15.28 (11:20) 8.61 (09:20) 2.4 0.8 1.2 0.2 0.2
02-04-2019 14.2 (13:40) 10.7 (00:00) 12.4 9.17 (19:50) 5.83 (01:30) 0 0 0 0 0
01-04-2019 18.4 (12:50) 10.5 (00:00) 14.4 11.39 (18:10) 8.06 (19:30) 0 0 0 0 0
31-03-2019 18.5 (17:30) 7.9 (00:00) 13.2 6.67 (18:40) 4.17 (18:10) 0 0 0 0 0
30-03-2019 15.8 (11:40) 9.4 (00:00) 12.6 6.39 (14:00) 3.89 (14:50) 0 0 0 0 0
29-03-2019 18.9 (12:40) 9.7 (00:00) 14.3 7.22 (08:00) 5 (07:50) 0 0 0 0 0
28-03-2019 18.9 (16:00) 9.2 (00:00) 14 11.11 (17:50) 7.78 (17:50) 0 0 0 0 0
27-03-2019 20 (15:50) 9.3 (00:00) 14.7 13.06 (14:20) 9.17 (15:00) 0 0 0 0 0
26-03-2019 18.2 (15:00) 10.6 (00:00) 14.4 13.06 (16:40) 8.06 (19:00) 0 0 0 0 0
25-03-2019 17.6 (13:50) 10.7 (00:00) 14.2 14.44 (17:00) 10 (17:00) 0 0 0 0 0
24-03-2019 20.3 (14:40) 10 (00:00) 15.1 11.39 (19:40) 8.06 (19:00) 0 0 0 0 0
23-03-2019 18.2 (12:30) 8.2 (00:00) 13.2 5.56 (16:30) 3.89 (18:40) 0 0 0 0 0
22-03-2019 17.6 (12:30) 8.6 (00:00) 13.1 6.67 (14:30) 5 (14:50) 0 0 0 0 0
21-03-2019 17.4 (14:30) 7.8 (00:00) 12.6 9.17 (19:10) 6.11 (19:10) 0 0 0 0 0

Gráficas

Temp. máximas Temp. mínimas Temp. medias Precipitaciones Rachas de viento máximas Velocidades máximas media en intervalos de 10 minutos

Datos horarios

Fecha y hora oficial Temperatura (ºC) Velocidad del viento (km/h) Dirección del viento Racha (km/h) Dirección de racha Precipitación (mm) Presión (hPa) Tendencia (hPa) Humedad (%)
2019-04-19 23:00:00 15.4 18 Este 25 Este 0 1015.5 2.6 69
2019-04-19 22:00:00 16 17 Nordeste 30 Nordeste 0 1014.7 2.2 69
2019-04-19 21:00:00 15.5 12 Norte 32 Norte 0 1013.7 1.3 79
2019-04-19 20:00:00 17.3 19 Nordeste 32 Este 0 1012.9 0.8 66
2019-04-19 19:00:00 17.3 24 Nordeste 35 Nordeste 0 1012.5 0.5 67
2019-04-19 18:00:00 16.8 11 Norte 32 Norte 0 1012.4 0.6 77
2019-04-19 17:00:00 16.6 21 Norte 28 Norte 0 1012.1 0.5 79
2019-04-19 16:00:00 16.8 12 Noroeste 28 Noroeste 0 1012 0.5 79
2019-04-19 15:00:00 18.1 13 Nordeste 28 Nordeste 0 1011.8 0.2 69
2019-04-19 14:00:00 16.5 15 Nordeste 27 Nordeste 0 1011.6 0.4 75
2019-04-19 13:00:00 15.4 10 Nordeste 29 Nordeste 0 1011.5 0.3 84
2019-04-19 12:00:00 14.4 16 Nordeste 27 Nordeste 0 1011.6 0.8 90
2019-04-19 11:00:00 13.5 14 Nordeste 25 Nordeste 0 1011.2 1 93
2019-04-19 10:00:00 13.1 16 Nordeste 34 Nordeste 0 1011.2 1.5 93
2019-04-19 09:00:00 13 20 Norte 37 Nordeste 0 1010.8 0.9 94
2019-04-19 08:00:00 13 22 Nordeste 43 Nordeste 0 1010.2 0.6 93
2019-04-19 07:00:00 13 23 Norte 46 Norte 0 1009.7 -0.1 94
2019-04-19 06:00:00 13 20 Norte 35 Nordeste 0 1009.9 -0.2 93
2019-04-19 05:00:00 12.9 14 Norte 26 Norte 0 1009.6 -0.8 93
2019-04-19 04:00:00 12.5 15 Nordeste 31 Nordeste 0 1009.8 -0.4 95
2019-04-19 03:00:00 13 14 Nordeste 33 Nordeste 0 1010.1 -0.1 92
2019-04-19 02:00:00 13.4 10 Norte 19 Nordeste 0 1010.4 0.5 83
2019-04-19 01:00:00 13.4 12 Nordeste 22 Nordeste 0 1010.2 1 81
2019-04-19 00:00:00 13.8 13 Nordeste 21 Nordeste 0 1010.2 2 78
2019-04-18 23:00:00 14.3 12 Nordeste 19 Este 0 1009.9 2.4 76
2019-04-18 22:00:00 14.2 12 Norte 23 Nordeste 0 1009.2 2.1 85
2019-04-18 21:00:00 14.6 12 Nordeste 31 Norte 0 1008.2 1.5 83
2019-04-18 20:00:00 14.6 20 Norte 34 Norte 0 1007.5 0.9 84
2019-04-18 19:00:00 14.8 14 Norte 30 Norte 0 1007.1 0.2 77
2019-04-18 18:00:00 15 21 Norte 28 Norte 0.2 1006.7 0 74
2019-04-18 17:00:00 15.7 12 Norte 28 Norte 0 1006.6 0 71
2019-04-18 16:00:00 15.6 14 Norte 28 Norte 0 1006.9 0.7 75
2019-04-18 15:00:00 14.7 11 Norte 21 Norte 0 1006.7 0.9 78
2019-04-18 14:00:00 15.1 10 Norte 19 Norte 0 1006.6 1.3 75
2019-04-18 13:00:00 15.3 9 Norte 18 Norte 0 1006.2 1.4 72
2019-04-18 12:00:00 15.9 6 Nordeste 14 Este 0 1005.8 1.6 70
2019-04-18 11:00:00 15.7 9 Nordeste 13 Nordeste 0 1005.3 2 73
2019-04-18 10:00:00 15.3 6 Este 9 Este 0 1004.8 2.3 77
2019-04-18 09:00:00 13.2 2 Nordeste 11 Sudeste 0 1004.2 2.3 86
2019-04-18 08:00:00 11.7 8 Sudeste 12 Sudeste 0 1003.3 1.3 89
2019-04-18 07:00:00 11.9 4 Sudeste 13 Sudeste 0 1002.5 0.7 89
2019-04-18 06:00:00 12.2 8 Sudeste 18 Sudeste 0 1001.9 -0.2 88
2019-04-18 05:00:00 12.4 9 Sudeste 19 Sudeste 0.2 1002 0.1 90
2019-04-18 04:00:00 12.5 8 Sudeste 18 Sudeste 0 1001.8 0 91
2019-04-18 03:00:00 12.5 9 Sudeste 17 Sudeste 0 1002.1 0.6 91
2019-04-18 02:00:00 12.6 10 Sudeste 15 Sudeste 1.4 1001.9 0.7 93
2019-04-18 01:00:00 12.7 9 Sudeste 15 Sudeste 1.4 1001.8 1.2 93
2019-04-18 00:00:00 12.8 5 Sudeste 10 Sudeste 0.6 1001.5 1.4 94
2019-04-17 23:00:00 12.9 8 Este 12 Este 0.4 1001.2 1.7 94
2019-04-17 22:00:00 13.1 5 Este 16 Este 1 1000.6 1.8 92
2019-04-17 21:00:00 13.7 5 Este 11 Sudeste 1.2 1000.1 1.7 88
2019-04-17 20:00:00 14.5 5 Sudeste 19 Sur 0.6 999.5 1.2 82
2019-04-17 19:00:00 15 9 Sudoeste 19 Sudoeste 0.4 998.8 0.8 78
2019-04-17 18:00:00 15.3 11 Sudoeste 35 Sudoeste 0 998.4 0.8 76
2019-04-17 17:00:00 16.1 21 Sudoeste 44 Sudoeste 0 998.3 0.5 70
2019-04-17 16:00:00 17.6 17 Sudoeste 31 Sudoeste 0 998 -0.3 58
2019-04-17 15:00:00 18.4 13 Sur 29 Sur 0 997.6 -1 50
2019-04-17 14:00:00 17.7 7 Sur 40 Sur 0 997.8 -0.8 52
2019-04-17 13:00:00 16 6 Sudeste 24 Sur 0 998.3 -0.3 59
2019-04-17 12:00:00 15.6 13 Sur 27 Sudeste 0 998.6 0.2 58
2019-04-17 11:00:00 14.5 5 Sur 21 Sudeste 0 998.6 0.2 60
2019-04-17 10:00:00 14.5 5 Sur 23 Sur 0 998.6 0.6 58
2019-04-17 09:00:00 14.6 9 Sur 24 Sur 0 998.4 0.6 56
2019-04-17 08:00:00 13.9 3 Nordeste 15 Este 0 998.4 0.9 66
2019-04-17 07:00:00 14.4 4 Este 21 Sudoeste 0 998 -0.6 63
2019-04-17 06:00:00 14.5 7 Sur 21 Sur 0 997.8 -1.7 60
2019-04-17 05:00:00 12.9 5 Sudeste 16 Sudeste 0 997.5 -3.2 71
2019-04-17 04:00:00 13.2 9 Sudeste 15 Sudeste 0 998.6 -3.4 71
2019-04-17 03:00:00 13.3 9 Sudeste 17 Sudeste 0 999.5 -3.3 71
2019-04-17 02:00:00 13.9 5 Sudeste 11 Sudeste 0 1000.7 -2.5 70
2019-04-17 01:00:00 13.9 4 Sudeste 8 Sudeste 0 1002 -1.5 69
2019-04-17 00:00:00 14.4 3 Este 11 Oeste 0 1002.8 -0.7 70
2019-04-16 23:00:00 14.5 4 Oeste 9 Oeste 0 1003.2 -1 72
2019-04-16 22:00:00 15.6 3 Oeste 9 Oeste 0 1003.5 -1 65
2019-04-16 21:00:00 16 4 Noroeste 13 Norte 0 1003.5 -1.4 61
2019-04-16 20:00:00 16.3 10 Norte 17 Noroeste 0 1004.2 -1.6 64
2019-04-16 19:00:00 16.8 8 Norte 18 Norte 0 1004.5 -2 62
2019-04-16 18:00:00 16.4 10 Noroeste 23 Norte 0 1004.9 -2.2 63
2019-04-16 17:00:00 16.4 12 Norte 24 Norte 0 1005.8 -2 64
2019-04-16 16:00:00 19.3 12 Sudeste 23 Sudeste 0 1006.5 -1.8 43
2019-04-16 15:00:00 19.1 8 Sudeste 26 Sudeste 0 1007.1 -1.6 48
2019-04-16 14:00:00 18.3 13 Sur 32 Sudeste 0 1007.8 -1.3 47
2019-04-16 13:00:00 17.2 12 Sudoeste 34 Sur 0 1008.3 -0.9 53
2019-04-16 12:00:00 16.4 15 Sur 31 Sur 0 1008.7 -0.5 54
2019-04-16 11:00:00 14 13 Sudeste 21 Sudeste 0 1009.1 0.1 65
2019-04-16 10:00:00 12.2 14 Sudeste 26 Sudeste 0 1009.2 0.2 70
2019-04-16 09:00:00 10.9 10 Sudeste 22 Sur 0 1009.2 -0.1 76
2019-04-16 08:00:00 10.7 15 Sur 24 Sudeste 0 1009 -0.5 78
2019-04-16 07:00:00 10.3 13 Sudeste 23 Sudeste 0 1009 -0.6 82
2019-04-16 06:00:00 10 10 Sudeste 21 Sudeste 0 1009.3 -0.6 84
2019-04-16 05:00:00 10.1 7 Sudeste 14 Sudeste 0 1009.5 -0.9 84
2019-04-16 04:00:00 10.5 6 Sudeste 14 Sudeste 0 1009.6 -0.6 84
2019-04-16 03:00:00 11.1 6 Sudeste 18 Sur 0 1009.9 0 82
2019-04-16 02:00:00 11.5 8 Sur 18 Sur 0 1010.4 0.7 81
2019-04-16 01:00:00 11.5 5 Sur 14 Sudeste 0 1010.2 1 78
2019-04-16 00:00:00 11.9 5 Sudeste 13 Sudeste 0 1009.9 1.8 76
2019-04-15 23:00:00 12.6 6 Sur 22 Sudoeste 0 1009.7 2.4 72
2019-04-15 22:00:00 13.2 12 Sudoeste 22 Sur 0 1009.2 2.2 69
2019-04-15 21:00:00 13.5 13 Oeste 25 Oeste 0 1008.1 1.9 79
2019-04-15 20:00:00 13.9 15 Oeste 28 Oeste 0 1007.3 2 72
2019-04-15 19:00:00 14.4 14 Oeste 31 Sudoeste 0 1007 2.4 72
2019-04-15 18:00:00 14.6 15 Oeste 44 Oeste 0 1006.2 2.4 71
2019-04-15 17:00:00 14.7 21 Oeste 45 Oeste 0.2 1005.3 2.3 74
2019-04-15 16:00:00 14.6 26 Oeste 45 Noroeste 0 1004.6 2 79
2019-04-15 15:00:00 13.7 23 Oeste 49 Oeste 0 1003.8 1.9 86
2019-04-15 14:00:00 13.5 19 Oeste 49 Oeste 0.4 1003 2.3 89
2019-04-15 13:00:00 14.4 19 Oeste 48 Sudoeste 0 1002.6 2.3 81
2019-04-15 12:00:00 14.7 16 Sudoeste 46 Sudoeste 0 1001.9 2.4 76
2019-04-15 11:00:00 14.8 20 Sudoeste 48 Sudoeste 0 1000.7 1.3 75
2019-04-15 10:00:00 15.8 14 Sudoeste 41 Sudoeste 0.6 1000.3 0.8 84
2019-04-15 09:00:00 16.2 10 Sur 28 Sur 0 999.5 -0.7 80
2019-04-15 08:00:00 16.3 14 Sur 30 Sur 0 999.4 -1.2 79
2019-04-15 07:00:00 16.4 12 Sur 32 Sur 0 999.5 -1.8 81
2019-04-15 06:00:00 16.5 10 Sudoeste 25 Sudeste 0 1000.2 -2.2 82
2019-04-15 05:00:00 17 7 Sur 18 Sur 0.8 1000.6 -2.8 88
2019-04-15 04:00:00 17.9 8 Sur 24 Sudoeste 0 1001.3 -2.8 80
2019-04-15 03:00:00 18.1 13 Sur 28 Sur 0 1002.4 -2.4 79
2019-04-15 02:00:00 18.1 10 Sur 26 Sur 0 1003.4 -1.8 77
2019-04-15 01:00:00 18.1 13 Sur 29 Sur 0 1004.1 -1.3 78
2019-04-15 00:00:00 17.9 5 Sudeste 14 Sudeste 0 1004.8 -0.5 81
2019-04-14 23:00:00 17.9 9 Sudeste 19 Sudeste 0 1005.2 0.1 81
2019-04-14 22:00:00 18.3 9 Sudeste 24 Sudoeste 0 1005.4 0.2 81
2019-04-14 21:00:00 18.9 10 Sur 35 Sudoeste 0 1005.3 0 77
2019-04-14 20:00:00 19.7 12 Sudoeste 36 Sudoeste 0 1005.1 -1 73
2019-04-14 19:00:00 20.8 17 Sudoeste 37 Sur 0 1005.2 -1.9 68
2019-04-14 18:00:00 22.1 13 Sur 39 Sudoeste 0 1005.3 -2.5 62
2019-04-14 17:00:00 22.3 18 Sudoeste 32 Sudoeste 0 1006.1 -2 61
2019-04-14 16:00:00 22 10 Sur 32 Sur 0 1007.1 -1.1 64
2019-04-14 15:00:00 20.2 15 Sur 30 Sur 0 1007.8 -0.7 71
2019-04-14 14:00:00 20.3 11 Sur 33 Sur 0 1008.1 -0.5 71
2019-04-14 13:00:00 19.7 19 Sur 34 Sur 0 1008.2 0.3 74
2019-04-14 12:00:00 19 9 Sur 30 Sur 0 1008.5 0.6 76
2019-04-14 11:00:00 17.2 14 Sudoeste 29 Sur 0 1008.6 0.9 82
2019-04-14 10:00:00 16.4 14 Sur 25 Sudeste 0 1007.9 0 85
2019-04-14 09:00:00 16 13 Sur 27 Sur 0 1007.9 -0.3 86
2019-04-14 08:00:00 15.5 3 Oeste 9 Sur 0 1007.7 -0.9 88
2019-04-14 07:00:00 15.2 3 Nordeste 14 Sur 0 1007.9 -1 88
2019-04-14 06:00:00 15 9 Sur 16 Sur 0 1008.2 -0.9 89
2019-04-14 05:00:00 15.1 2 Sudoeste 12 Sudeste 0 1008.6 -0.8 87
2019-04-14 04:00:00 15.6 10 Sur 21 Sur 0 1008.9 -1.2 86
2019-04-14 03:00:00 15.6 15 Sur 28 Sudeste 0 1009.1 -1.2 86
2019-04-14 02:00:00 15.5 13 Sur 24 Sur 0 1009.4 -1.1 85
2019-04-14 01:00:00 15.8 10 Sur 23 Sur 0 1010.1 -0.1 83
2019-04-14 00:00:00 15.9 11 Sur 22 Sur 0 1010.3 0.4 82
2019-04-13 23:00:00 16 8 Sur 21 Sur 0 1010.5 0.7 80
2019-04-13 22:00:00 16.3 10 Sur 22 Sur 0 1010.2 0.9 79
2019-04-13 21:00:00 16.5 10 Sur 24 Sudeste 0 1009.9 0.4 78
2019-04-13 20:00:00 17.4 11 Sur 29 Sur 0 1009.8 0.3 73
2019-04-13 19:00:00 17.9 12 Sur 28 Sur 0 1009.3 -0.5 70
2019-04-13 18:00:00 18.4 16 Sur 30 Sur 0 1009.5 -0.2 67
2019-04-13 17:00:00 19.4 14 Sudoeste 24 Sur 0 1009.5 -0.4 59
2019-04-13 16:00:00 19 3 Norte 18 Sur 0 1009.8 -0.3 59
2019-04-13 15:00:00 20.8 9 Sur 24 Sur 0 1009.7 -0.6 54
2019-04-13 14:00:00 20.3 5 Nordeste 18 Sudeste 0 1009.9 -0.3 48
2019-04-13 13:00:00 19.1 4 Oeste 23 Sudeste 0 1010.1 -0.2 49
2019-04-13 12:00:00 18.2 11 Sur 27 Sur 0 1010.3 0 45
2019-04-13 11:00:00 17 10 Sudeste 23 Sur 0 1010.2 -0.3 45
2019-04-13 10:00:00 14.5 9 Sudeste 18 Sudeste 0 1010.3 0.3 60
2019-04-13 09:00:00 13.3 9 Sudeste 14 Sudeste 0 1010.3 0 62
2019-04-13 08:00:00 12.3 4 Sudeste 14 Sudeste 0 1010.5 -0.1 67
2019-04-13 07:00:00 12.6 9 Sudeste 17 Sur 0 1010 -0.9 65
2019-04-13 06:00:00 12.5 13 Sur 17 Sur 0 1010.3 -0.9 66
2019-04-13 05:00:00 12.6 8 Sudeste 14 Sur 0 1010.6 -1.4 64
2019-04-13 04:00:00 12.2 7 Sur 12 Sur 0 1010.9 -1.1 65
2019-04-13 03:00:00 12.4 8 Sudeste 10 Sudeste 0 1011.2 -0.7 66
2019-04-13 02:00:00 12.4 3 Sudeste 13 Sur 0 1012 -0.1 69
2019-04-13 01:00:00 12.9 6 Sudeste 14 Sur 0 1012 0.3 67
2019-04-13 00:00:00 13.2 4 Sudeste 9 Sudeste 0 1011.9 0.5 64
2019-04-12 23:00:00 13.1 2 Este 6 Sudeste 0 1012.1 0.9 60
2019-04-12 22:00:00 13 2 Oeste 8 Oeste 0 1011.7 0.4 68
2019-04-12 21:00:00 13.4 4 Noroeste 7 Noroeste 0 1011.4 -0.1 67
2019-04-12 20:00:00 13.7 4 Nordeste 9 Norte 0 1011.2 -0.7 64
2019-04-12 19:00:00 14.2 6 Noroeste 14 Oeste 0 1011.3 -1.1 61
2019-04-12 18:00:00 14.9 9 Noroeste 18 Oeste 0 1011.5 -1.1 61
2019-04-12 17:00:00 15.8 14 Oeste 23 Oeste 0 1011.9 -0.9 59
2019-04-12 16:00:00 15.2 13 Oeste 19 Noroeste 0 1012.4 -0.6 65
2019-04-12 15:00:00 15.1 10 Norte 17 Noroeste 0 1012.6 -0.4 67
2019-04-12 14:00:00 15.7 11 Norte 15 Norte 0 1012.8 -0.1 64
2019-04-12 13:00:00 16 8 Nordeste 13 Nordeste 0 1013 -0.2 60
2019-04-12 12:00:00 14.4 5 Sudeste 19 Sudeste 0 1013 -0.3 66
2019-04-12 11:00:00 11.6 12 Sudeste 23 Sudeste 0 1012.9 -0.3 70
2019-04-12 10:00:00 9.6 9 Sudeste 19 Sudeste 0 1013.2 0 76
2019-04-12 09:00:00 7.7 7 Sudeste 13 Sudeste 0 1013.3 -0.1 83
2019-04-12 08:00:00 7.6 8 Sudeste 21 Sudeste 0 1013.2 -0.2 85
2019-04-12 07:00:00 8.1 13 Sudeste 22 Sudeste 0 1013.2 -0.6 84
2019-04-12 06:00:00 8.5 9 Sudeste 18 Sur 0 1013.4 -1 83
2019-04-12 05:00:00 8.4 10 Sudeste 19 Sudeste 0 1013.4 -0.9 85
2019-04-12 04:00:00 8.7 9 Sudeste 15 Sudeste 0 1013.8 -0.8 84
2019-04-12 03:00:00 9.1 4 Sudeste 15 Sudeste 0 1014.4 -0.1 89
2019-04-12 02:00:00 9.8 8 Sudeste 14 Sudeste 0 1014.3 -0.4 89
2019-04-12 01:00:00 10.6 4 Sudeste 8 Este 0 1014.6 -0.1 87
2019-04-12 00:00:00 11.1 4 Sudeste 18 Nordeste 0 1014.5 0.2 86
2019-04-11 23:00:00 11.7 10 Este 16 Nordeste 0 1014.7 0.3 85
2019-04-11 22:00:00 11.8 5 Nordeste 16 Nordeste 0 1014.7 0 87
2019-04-11 21:00:00 12.2 10 Norte 30 Norte 0 1014.3 -0.4 86
2019-04-11 20:00:00 12.3 23 Norte 34 Norte 0 1014.4 -0.4 83
2019-04-11 19:00:00 12.6 19 Norte 32 Norte 0 1014.7 -0.4 79
2019-04-11 18:00:00 13.1 23 Norte 31 Norte 0 1014.7 -0.7 73
2019-04-11 17:00:00 13.9 19 Norte 30 Norte 0 1014.8 -0.8 73
2019-04-11 16:00:00 14.1 17 Norte 28 Norte 0 1015.1 -0.8 73
2019-04-11 15:00:00 14 15 Norte 24 Norte 0 1015.4 -0.3 74
2019-04-11 14:00:00 13.9 13 Norte 21 Noroeste 0 1015.6 0.1 70
2019-04-11 13:00:00 14.6 8 Nordeste 14 Nordeste 0 1015.9 0.5 66
2019-04-11 12:00:00 13.9 7 Este 12 Este 0 1015.7 0.4 67
2019-04-11 11:00:00 12.8 4 Este 13 Sudeste 0 1015.5 0.7 72
2019-04-11 10:00:00 10.2 4 Sudeste 8 Sudeste 0 1015.4 0.8 83
2019-04-11 09:00:00 7.9 4 Sur 8 Sudeste 0 1015.3 0.5 96
2019-04-11 08:00:00 7.4 6 Sudeste 11 Sudeste 0 1014.8 0 93
2019-04-11 07:00:00 8.1 2 Sur 8 Sudeste 0 1014.6 -0.1 93
2019-04-11 06:00:00 8.5 4 Sudeste 10 Sur 0 1014.8 0 92
2019-04-11 05:00:00 9.1 3 Sudeste 9 Sur 0 1014.8 0 90
2019-04-11 04:00:00 9.8 3 Sudeste 5 Sudeste 0 1014.7 -0.1 90
2019-04-11 03:00:00 10.2 0 Calma 5 Sudeste 0 1014.8 -0.1 88
2019-04-11 02:00:00 10.5 3 Sudeste 9 Este 0 1014.8 -0.1 88
2019-04-11 01:00:00 11 7 Este 9 Este 0 1014.8 0.4 87
2019-04-11 00:00:00 11.2 8 Nordeste 13 Este 0 1014.9 1.2 86
2019-04-10 23:00:00 11.6 8 Nordeste 14 Nordeste 0 1014.9 1.6 82
2019-04-10 22:00:00 11.9 9 Nordeste 17 Norte 0 1014.4 1.4 82
2019-04-10 21:00:00 12.2 12 Norte 19 Norte 0 1013.7 1 82
2019-04-10 20:00:00 12.6 13 Norte 21 Norte 0 1013.3 0.8 81
2019-04-10 19:00:00 13.1 14 Norte 24 Norte 0 1013 0.5 79
2019-04-10 18:00:00 13.6 14 Norte 26 Norte 0 1012.7 0.6 77
2019-04-10 17:00:00 14.4 17 Norte 25 Noroeste 0 1012.5 0.4 76
2019-04-10 16:00:00 14.6 17 Norte 25 Norte 0 1012.5 0.5 74
2019-04-10 15:00:00 14.6 17 Norte 26 Norte 0 1012.1 0.8 75
2019-04-10 14:00:00 14.5 15 Norte 26 Noroeste 0 1012.1 1.2 75
2019-04-10 13:00:00 13.7 14 Norte 27 Noroeste 0 1012 1.7 78
2019-04-10 12:00:00 13.3 12 Norte 24 Norte 0 1011.3 1.6 81
2019-04-10 11:00:00 12.5 14 Noroeste 26 Noroeste 0 1010.9 1.9 83
2019-04-10 10:00:00 11.8 12 Noroeste 27 Noroeste 0 1010.3 2 84
2019-04-10 09:00:00 11.5 18 Noroeste 33 Noroeste 0.6 1009.7 1.7 85
2019-04-10 08:00:00 11.5 20 Noroeste 42 Oeste 0 1009 1.2 85
2019-04-10 07:00:00 11.4 24 Noroeste 42 Oeste 0 1008.3 0.8 85
2019-04-10 06:00:00 11.1 20 Noroeste 44 Noroeste 0.4 1008 0.6 89
2019-04-10 05:00:00 11.3 27 Oeste 46 Oeste 0 1007.8 0.4 82
2019-04-10 04:00:00 11.2 26 Oeste 40 Noroeste 0 1007.5 0.4 85
2019-04-10 03:00:00 11.1 24 Oeste 43 Oeste 0 1007.4 0.7 85
2019-04-10 02:00:00 11.2 23 Oeste 44 Oeste 0 1007.4 1 85
2019-04-10 01:00:00 11.3 25 Oeste 43 Oeste 0 1007.1 1.3 83
2019-04-10 00:00:00 11 19 Oeste 41 Oeste 0 1006.7 1.7 87
2019-04-09 23:00:00 11.1 21 Oeste 37 Oeste 0.8 1006.4 2.3 89
2019-04-09 22:00:00 11.1 21 Oeste 37 Oeste 0 1005.8 2.5 89
2019-04-09 21:00:00 11.2 22 Oeste 52 Oeste 0.2 1005 1.8 86
2019-04-09 20:00:00 11.6 27 Oeste 59 Oeste 0.4 1004.1 1 88
2019-04-09 19:00:00 11.4 26 Oeste 58 Oeste 3 1003.3 0.4 89
2019-04-09 18:00:00 12.5 27 Oeste 58 Oeste 0.8 1003.2 0.6 78
2019-04-09 17:00:00 13.9 23 Oeste 51 Oeste 0 1003.1 0.5 70
2019-04-09 16:00:00 13.3 26 Sudoeste 57 Oeste 0 1002.9 -0.1 79
2019-04-09 15:00:00 13.5 19 Sudoeste 56 Sudoeste 0.4 1002.6 -0.2 75
2019-04-09 14:00:00 15.4 23 Oeste 63 Oeste 0 1002.6 -0.8 60
2019-04-09 13:00:00 13.7 24 Sudoeste 46 Sudoeste 0 1003 0.4 68
2019-04-09 12:00:00 13 18 Sudoeste 38 Oeste 0.2 1002.8 0.5 76
2019-04-09 11:00:00 11.1 22 Sudoeste 42 Sudoeste 1 1003.4 1.6 82
2019-04-09 10:00:00 9.7 14 Sudoeste 27 Sudoeste 0.6 1002.6 1.1 86
2019-04-09 09:00:00 9.5 15 Sudoeste 40 Sudoeste 0.4 1002.3 0.9 87
2019-04-09 08:00:00 9 13 Sudoeste 34 Sudoeste 0 1001.8 1.1 83
2019-04-09 07:00:00 9 13 Sudoeste 27 Sudoeste 0.6 1001.5 0.9 82
2019-04-09 06:00:00 9.3 25 Sudoeste 56 Sudoeste 1 1001.4 0.8 87
2019-04-09 05:00:00 9.9 16 Sudoeste 33 Oeste 1.8 1000.7 0.2 86
2019-04-09 04:00:00 10.2 17 Oeste 36 Oeste 1.2 1000.6 0.1 86
2019-04-09 03:00:00 10.6 10 Sur 19 Sudoeste 0 1000.6 -0.3 83
2019-04-09 02:00:00 10.6 10 Sur 21 Sur 0 1000.5 -0.9 83
2019-04-09 01:00:00 10.5 12 Sur 24 Sur 0 1000.5 -0.6 83
2019-04-09 00:00:00 10.2 14 Sur 34 Sur 0 1000.9 -0.1 83
2019-04-08 23:00:00 10.4 11 Sur 31 Sur 0 1001.4 0.7 80
2019-04-08 22:00:00 10.2 13 Sur 46 Sudoeste 2.2 1001.1 -0.5 80
2019-04-08 21:00:00 11.9 18 Sur 40 Sudoeste 1 1001 -0.7 78
2019-04-08 20:00:00 12.7 13 Sur 28 Sur 0.4 1000.7 -1.5 74
2019-04-08 19:00:00 12.1 11 Sur 47 Sur 0.8 1001.6 -0.9 76
2019-04-08 18:00:00 14.4 20 Sur 54 Sudoeste 0 1001.7 -1.1 62
2019-04-08 17:00:00 14.7 24 Sudoeste 54 Sudoeste 0 1002.2 -0.4 55
2019-04-08 16:00:00 14.6 26 Sudoeste 61 Sudoeste 0 1002.5 -0.7 58
2019-04-08 15:00:00 15.6 36 Sudoeste 64 Sudoeste 0 1002.8 -0.3 54
2019-04-08 14:00:00 15.7 22 Sudoeste 49 Sudoeste 0 1002.6 -0.6 50
2019-04-08 13:00:00 14.3 21 Sudoeste 42 Sudoeste 0 1003.2 -0.1 57
2019-04-08 12:00:00 14.7 16 Sudoeste 42 Sudoeste 0 1003.1 0.1 57
2019-04-08 11:00:00 13.2 18 Sudoeste 38 Sudoeste 0 1003.2 0.6 65
2019-04-08 10:00:00 11.9 9 Sur 23 Sur 0 1003.3 0.9 73
2019-04-08 09:00:00 10.1 8 Sur 25 Sudoeste 0 1003 0.8 79
2019-04-08 08:00:00 9.9 16 Sudoeste 30 Sur 0 1002.6 0.5 79
2019-04-08 07:00:00 10 18 Sudoeste 32 Sudoeste 0 1002.4 0.7 79
2019-04-08 06:00:00 10.4 17 Sudoeste 30 Sudoeste 0 1002.2 1 83
2019-04-08 05:00:00 10.5 15 Sudoeste 28 Sudoeste 0 1002.1 1.3 86
2019-04-08 04:00:00 10.8 14 Sudoeste 31 Sudoeste 0 1001.7 1.6 89
2019-04-08 03:00:00 10.9 13 Sudoeste 30 Sudoeste 2.2 1001.2 1.8 91
2019-04-08 02:00:00 11.3 12 Sudoeste 30 Sudoeste 0.8 1000.8 1.6 93
2019-04-08 01:00:00 11.3 16 Sudoeste 31 Sudoeste 1 1000.1 2 94
2019-04-08 00:00:00 11.4 15 Sudoeste 32 Oeste 4.4 999.4 1.7 93
2019-04-07 23:00:00 12 14 Sudoeste 29 Oeste 2.4 999.2 1.6 91
2019-04-07 22:00:00 12 14 Sudoeste 28 Sudoeste 0 998.1 0.9 87
2019-04-07 21:00:00 11.8 6 Sur 28 Sur 0 997.7 -0.8 85
2019-04-07 20:00:00 11.6 12 Sudeste 34 Sudeste 0.2 997.6 -1.5 83
2019-04-07 19:00:00 10.5 21 Sudeste 46 Sur 0.8 997.2 -2.6 86
2019-04-07 18:00:00 10.3 15 Sudeste 35 Sudeste 0.6 998.5 -1.6 87
2019-04-07 17:00:00 10.6 13 Sudeste 29 Sudeste 2.4 999.1 -1.4 84
2019-04-07 16:00:00 11.4 18 Sudeste 41 Sur 1 999.8 -1.1 77
2019-04-07 15:00:00 14 18 Sur 40 Sur 0 1000.1 -0.9 58
2019-04-07 14:00:00 13.4 12 Sur 36 Sur 0 1000.5 -0.6 62
2019-04-07 13:00:00 12.9 13 Sur 32 Sur 0 1000.9 -0.5 65
2019-04-07 12:00:00 12 13 Sur 28 Sur 0 1001 -0.2 69
2019-04-07 11:00:00 10.2 6 Sudeste 13 Sudeste 0 1001.1 0.2 78
2019-04-07 10:00:00 10.2 5 Sur 19 Sur 0 1001.4 0.9 75
2019-04-07 09:00:00 8.3 8 Sur 17 Sur 0 1001.2 1 79
2019-04-07 08:00:00 7.9 9 Sur 17 Sur 0 1000.9 1.1 80
2019-04-07 07:00:00 8.1 9 Sur 24 Sudoeste 0 1000.5 1 81
2019-04-07 06:00:00 8.1 9 Sur 21 Sudoeste 0 1000.2 0.7 80
2019-04-07 05:00:00 8.1 9 Sur 19 Sudoeste 0 999.8 0.2 81
2019-04-07 04:00:00 8.3 12 Sur 18 Sudoeste 0 999.5 0.5 81
2019-04-07 03:00:00 8.1 10 Sudoeste 22 Sudoeste 2.6 999.5 1.1 85
2019-04-07 02:00:00 8.2 9 Sudoeste 26 Sur 0.4 999.6 1.5 82
2019-04-07 01:00:00 8.3 13 Sudoeste 25 Sudoeste 0 999 1.3 79
2019-04-07 00:00:00 8.7 13 Sudoeste 22 Sudoeste 0 998.4 1.4 79
2019-04-06 23:00:00 9 14 Sudoeste 22 Sudoeste 0 998.1 1.6 79
2019-04-06 22:00:00 9.2 14 Sudoeste 23 Sudoeste 0 997.7 1.9 80
2019-04-06 21:00:00 10 12 Oeste 39 Oeste 0 997 1.6 75
2019-04-06 20:00:00 11 21 Oeste 38 Oeste 0 996.5 1.7 71
2019-04-06 19:00:00 11.7 23 Oeste 42 Oeste 0 995.8 1.5 70
2019-04-06 18:00:00 11.8 23 Oeste 44 Oeste 0 995.4 1.6 67
2019-04-06 17:00:00 12.8 28 Oeste 54 Oeste 0 994.8 2.2 65
2019-04-06 16:00:00 12 29 Noroeste 54 Noroeste 0 994.3 2.3 71
2019-04-06 15:00:00 9.1 26 Noroeste 63 Noroeste 1 993.8 2.9 83
2019-04-06 14:00:00 11 33 Oeste 53 Oeste 0 992.6 2.9 82
2019-04-06 13:00:00 10.1 22 Noroeste 46 Noroeste 0.2 992 3.3 79
2019-04-06 12:00:00 9.9 23 Noroeste 42 Noroeste 1.4 990.9 3 83
2019-04-06 11:00:00 9 24 Oeste 46 Noroeste 2.2 989.7 2.7 83
2019-04-06 10:00:00 9.5 21 Oeste 45 Oeste 0.6 988.7 2.2 85
2019-04-06 09:00:00 7.8 15 Sudoeste 32 Sudoeste 0.4 987.9 1.2 87
2019-04-06 08:00:00 7.7 14 Sudoeste 22 Sur 0.2 987 -0.7 86
2019-04-06 07:00:00 7.5 10 Sur 31 Sur 0.8 986.5 -2.3 86
2019-04-06 06:00:00 7.4 17 Sur 36 Sur 0.8 986.7 -3 86
2019-04-06 05:00:00 7.1 12 Sudeste 39 Sudoeste 2 987.7 -2.4 85
2019-04-06 04:00:00 7.4 8 Sudoeste 26 Sur 0.2 988.8 -2.3 86
2019-04-06 03:00:00 7.4 10 Sudeste 30 Sudeste 1.6 989.7 -1.8 87
2019-04-06 02:00:00 7.5 15 Sur 42 Sur 0.2 990.1 -1.9 81
2019-04-06 01:00:00 7.9 9 Sur 33 Sudoeste 2 991.1 -0.4 85
2019-04-06 00:00:00 7.9 12 Sur 28 Sur 1 991.5 0.2 85
2019-04-05 23:00:00 7.5 20 Sudoeste 49 Sudoeste 3 992 0.6 87
2019-04-05 22:00:00 9.1 10 Sur 22 Sur 0 991.5 0.5 77
2019-04-05 21:00:00 9.6 12 Sudoeste 24 Sudoeste 0 991.3 0.7 78
2019-04-05 20:00:00 10.2 16 Sudoeste 38 Sudoeste 0 991.4 1 70
2019-04-05 19:00:00 10.7 12 Sudoeste 30 Oeste 0 991 0.7 74
2019-04-05 18:00:00 11 16 Sudoeste 27 Sudoeste 0 990.6 1 76
2019-04-05 17:00:00 9.6 13 Sudoeste 31 Oeste 0.8 990.4 1.1 79
2019-04-05 16:00:00 9.7 15 Oeste 32 Sudoeste 0.4 990.3 1.6 80
2019-04-05 15:00:00 9.8 15 Sudoeste 35 Sudoeste 0.6 989.6 1 80
2019-04-05 14:00:00 10.7 15 Sudoeste 48 Sudoeste 0 989.3 1.1 76
2019-04-05 13:00:00 9.6 23 Sudoeste 45 Sudoeste 0.8 988.7 0.9 78
2019-04-05 12:00:00 9.3 18 Sudoeste 34 Sudoeste 0 988.6 0.9 71
2019-04-05 11:00:00 7.3 15 Sur 37 Sur 0.2 988.2 0.5 81
2019-04-05 10:00:00 7.2 14 Sur 30 Sur 0 987.8 0.1 77
2019-04-05 09:00:00 6.5 16 Sur 28 Sur 0 987.7 -0.2 78
2019-04-05 08:00:00 5.8 16 Sur 30 Sur 0 987.7 -0.3 82
2019-04-05 07:00:00 6 12 Sur 24 Sur 0 987.7 -0.8 81
2019-04-05 06:00:00 6.2 10 Sur 23 Sudoeste 0 987.9 -0.6 78
2019-04-05 05:00:00 6.8 12 Sur 27 Sudoeste 0 988 -0.8 74
2019-04-05 04:00:00 7.2 21 Sudoeste 37 Sudoeste 0 988.5 -0.4 75
2019-04-05 03:00:00 8 9 Sudoeste 26 Sudoeste 0 988.5 -0.4 76
2019-04-05 02:00:00 8 13 Sudoeste 24 Sudoeste 0 988.8 -0.5 78
2019-04-05 01:00:00 8.1 7 Sudoeste 21 Sudoeste 0 988.9 -0.3 82
2019-04-05 00:00:00 8.1 12 Sudoeste 24 Sudoeste 0.4 988.9 -0.1 84
2019-04-04 23:00:00 8.7 15 Sudoeste 31 Sudoeste 0.6 989.3 -0.1 83
2019-04-04 22:00:00 8.9 13 Sudoeste 44 Sudoeste 0.2 989.2 -0.5 81
2019-04-04 21:00:00 10 14 Sudoeste 27 Sudoeste 0.2 989 -1 82
2019-04-04 20:00:00 9.8 10 Sudoeste 26 Sudoeste 0.6 989.4 -1.3 88
2019-04-04 19:00:00 9.7 15 Sudoeste 35 Sudoeste 0.8 989.7 -1.8 90
2019-04-04 18:00:00 10.1 19 Sudoeste 38 Sur 2.8 990 -2.2 86
2019-04-04 17:00:00 10.6 17 Sudoeste 42 Sudoeste 1.4 990.7 -2.3 82
2019-04-04 16:00:00 10.9 21 Sudoeste 45 Sudoeste 0.2 991.5 -2.6 77
2019-04-04 15:00:00 11.4 22 Sudoeste 49 Sudoeste 0 992.2 -2.9 72
2019-04-04 14:00:00 11.6 23 Sudoeste 46 Sudoeste 0 993 -2.9 70
2019-04-04 13:00:00 11.4 23 Sudoeste 45 Sudoeste 0 994.1 -2.8 67
2019-04-04 12:00:00 10.7 23 Sudoeste 49 Sudoeste 0.2 995.1 -2.4 69
2019-04-04 11:00:00 9.6 9 Sur 23 Sur 0 995.9 -2 76
2019-04-04 10:00:00 8.1 12 Sur 25 Sur 0 996.9 -1.5 77
2019-04-04 09:00:00 7.6 9 Sur 22 Sudoeste 0 997.5 -1.8 80
2019-04-04 08:00:00 7.1 13 Sudoeste 24 Sudoeste 0.2 997.9 -2 82
2019-04-04 07:00:00 7 10 Sudoeste 23 Sudoeste 0 998.4 -2.5 81
2019-04-04 06:00:00 8 19 Sudoeste 32 Sudoeste 0 999.3 -2.4 82
2019-04-04 05:00:00 8.1 11 Oeste 23 Noroeste 0 999.9 -2.6 77
2019-04-04 04:00:00 8.3 15 Oeste 31 Noroeste 0 1000.9 -2.5 73
2019-04-04 03:00:00 8.9 18 Noroeste 34 Noroeste 0.6 1001.7 -1.9 76
2019-04-04 02:00:00 8.9 19 Oeste 36 Oeste 0 1002.5 -1.6 74
2019-04-04 01:00:00 9.4 18 Noroeste 35 Noroeste 0 1003.4 -0.9 62
2019-04-04 00:00:00 9.7 17 Noroeste 34 Oeste 0 1003.6 -0.6 64
2019-04-03 23:00:00 9.6 16 Noroeste 30 Noroeste 0 1004.1 -0.4 63
2019-04-03 22:00:00 9 12 Noroeste 21 Noroeste 0 1004.3 -0.3 72
2019-04-03 21:00:00 9.4 12 Noroeste 36 Noroeste 0 1004.2 -0.7 71
2019-04-03 20:00:00 9.1 14 Noroeste 43 Norte 0.2 1004.5 -0.8 73
2019-04-03 19:00:00 10.6 19 Noroeste 40 Oeste 0 1004.6 -1.2 62
2019-04-03 18:00:00 10.8 19 Noroeste 45 Noroeste 0 1004.9 -1.1 61
2019-04-03 17:00:00 11.8 19 Noroeste 42 Noroeste 0 1005.3 -1.1 60
2019-04-03 16:00:00 11.5 18 Noroeste 35 Noroeste 0.2 1005.8 -0.9 59
2019-04-03 15:00:00 11.6 17 Noroeste 41 Noroeste 0 1006 -1 57
2019-04-03 14:00:00 11.8 18 Noroeste 43 Noroeste 0 1006.4 -0.5 58
2019-04-03 13:00:00 11.1 16 Noroeste 35 Noroeste 0 1006.7 -0.3 69
2019-04-03 12:00:00 10.1 15 Noroeste 55 Norte 0.8 1007 -0.2 71
2019-04-03 11:00:00 8.9 18 Noroeste 44 Oeste 0.2 1006.9 -0.3 74
2019-04-03 10:00:00 10.3 18 Noroeste 52 Noroeste 0 1007 -0.7 72
2019-04-03 09:00:00 9.2 14 Noroeste 41 Noroeste 0 1007.2 -0.5 72
2019-04-03 08:00:00 9.5 21 Noroeste 42 Noroeste 0.2 1007.2 -1.2 73
2019-04-03 07:00:00 9.4 19 Noroeste 43 Noroeste 0 1007.7 -1.4 73
2019-04-03 06:00:00 9.4 20 Noroeste 33 Noroeste 0 1007.7 -1.8 72
2019-04-03 05:00:00 9.4 13 Noroeste 33 Noroeste 0 1008.4 -1.9 75
2019-04-03 04:00:00 9.5 15 Noroeste 47 Noroeste 0 1009.1 -1.5 73
2019-04-03 03:00:00 9.8 10 Noroeste 27 Noroeste 0.8 1009.5 -1.4 76
2019-04-03 02:00:00 10.1 19 Norte 33 Noroeste 0 1010.3 -0.9 81
2019-04-03 01:00:00 10.4 14 Noroeste 26 Noroeste 0 1010.6 -0.4 72
2019-04-03 00:00:00 10.8 14 Noroeste 24 Noroeste 0 1010.9 0 72
2019-04-02 23:00:00 10.8 14 Noroeste 24 Noroeste 0 1011.2 0.4 66
2019-04-02 22:00:00 11 12 Noroeste 26 Noroeste 0 1011 0 69
2019-04-02 21:00:00 11.1 12 Noroeste 26 Norte 0 1010.9 -0.2 71
2019-04-02 20:00:00 11.5 15 Norte 33 Norte 0 1010.8 -0.7 78
2019-04-02 19:00:00 12.3 11 Noroeste 25 Noroeste 0 1011 -0.5 70
2019-04-02 18:00:00 13 13 Noroeste 26 Noroeste 0 1011.1 -0.8 69
2019-04-02 17:00:00 13.5 14 Norte 26 Noroeste 0 1011.5 -0.9 65
2019-04-02 16:00:00 13.6 15 Noroeste 26 Noroeste 0 1011.5 -1 66
2019-04-02 15:00:00 13.7 12 Noroeste 23 Norte 0 1011.9 -0.3 67
2019-04-02 14:00:00 13.8 14 Norte 25 Norte 0 1012.4 0.4 67
2019-04-02 13:00:00 13.6 13 Noroeste 25 Norte 0 1012.5 0.7 71
2019-04-02 12:00:00 13 10 Noroeste 18 Norte 0 1012.2 0.6 74
2019-04-02 11:00:00 12.2 12 Norte 22 Norte 0 1012 0.6 76
2019-04-02 10:00:00 12.1 13 Norte 20 Norte 0 1011.8 0.7 81
2019-04-02 09:00:00 12 9 Norte 20 Norte 0 1011.6 0.6 78
2019-04-02 08:00:00 12 12 Norte 21 Norte 0 1011.4 0.6 80
2019-04-02 07:00:00 12.1 10 Norte 23 Norte 0 1011.1 0.2 76
2019-04-02 06:00:00 11.9 10 Norte 23 Noroeste 0 1011 0 79
2019-04-02 05:00:00 12 10 Norte 23 Norte 0 1010.8 -0.2 80
2019-04-02 04:00:00 12.3 13 Norte 21 Norte 0 1010.9 0.1 84
2019-04-02 03:00:00 12.2 11 Norte 22 Norte 0 1011 0.5 81
2019-04-02 02:00:00 12.3 15 Norte 28 Norte 0 1011 1 85
2019-04-02 01:00:00 12.4 14 Norte 23 Norte 0 1010.8 1.7 91
2019-04-02 00:00:00 12.3 6 Norte 23 Norte 0 1010.5 2.5 91
2019-04-01 23:00:00 12.5 13 Norte 36 Norte 0 1010 2.6 93
2019-04-01 22:00:00 12.6 29 Norte 41 Norte 0 1009.1 2.2 95
2019-04-01 21:00:00 12.9 15 Norte 37 Norte 0 1008 1.4 94
2019-04-01 20:00:00 13.2 22 Norte 40 Norte 0 1007.4 1.1 91
2019-04-01 19:00:00 13.6 22 Norte 41 Norte 0 1006.9 0.6 88
2019-04-01 18:00:00 14.1 23 Norte 38 Norte 0 1006.6 0.1 83
2019-04-01 17:00:00 14.8 18 Norte 38 Norte 0 1006.3 -0.7 79
2019-04-01 16:00:00 15.3 21 Norte 38 Nordeste 0 1006.3 -1 73
2019-04-01 15:00:00 15.5 15 Norte 31 Norte 0 1006.5 -0.7 77
2019-04-01 14:00:00 16.8 10 Noroeste 21 Norte 0 1007 0.2 72
2019-04-01 13:00:00 18.1 6 Noroeste 10 Noroeste 0 1007.3 1 50
2019-04-01 12:00:00 17.2 6 Nordeste 9 Nordeste 0 1007.2 1.3 42
2019-04-01 11:00:00 16.2 5 Nordeste 9 Este 0 1006.8 1.5 54
2019-04-01 10:00:00 13.9 3 Este 11 Este 0 1006.3 1.3 64
2019-04-01 09:00:00 11.1 5 Este 15 Sudeste 0 1005.9 1.1 74
2019-04-01 08:00:00 10.9 6 Sudeste 9 Sudeste 0 1005.3 0.5 81
2019-04-01 07:00:00 10.7 3 Sudeste 10 Sur 0 1005 0.1 82
2019-04-01 06:00:00 10.9 5 Sur 9 Sur 0 1004.8 -0.2 82
2019-04-01 05:00:00 11 4 Sudeste 5 Sudeste 0 1004.8 -0.3 82
2019-04-01 04:00:00 11.3 0 Calma 6 Este 0 1004.9 -0.2 82
2019-04-01 03:00:00 11.7 3 Este 8 Nordeste 0 1005 -0.2 80
2019-04-01 02:00:00 12.3 6 Este 13 Este 0 1005.1 -0.3 79
2019-04-01 01:00:00 12.6 5 Este 12 Nordeste 0 1005.1 0 77
2019-04-01 00:00:00 12.9 5 Nordeste 11 Sudeste 0 1005.2 0.4 82
2019-03-31 23:00:00 13.7 4 Nordeste 6 Nordeste 0 1005.4 1.1 84
2019-03-31 22:00:00 14.3 3 Noroeste 5 Sudoeste 0 1005.1 0.7 77
2019-03-31 21:00:00 15.1 7 Sur 13 Sudoeste 0 1004.8 0.5 74
2019-03-31 20:00:00 15.3 8 Oeste 23 Oeste 0 1004.3 -0.2 80
2019-03-31 19:00:00 16.3 10 Oeste 24 Oeste 0 1004.4 -0.8 75
2019-03-31 18:00:00 17.6 12 Oeste 20 Oeste 0 1004.3 -1.5 69
2019-03-31 17:00:00 17.2 9 Norte 15 Norte 0 1004.5 -2 69
2019-03-31 16:00:00 16 7 Norte 18 Oeste 0 1005.2 -1.6 76
2019-03-31 15:00:00 15.6 14 Oeste 19 Noroeste 0 1005.8 -1.3 76
2019-03-31 14:00:00 14.3 8 Noroeste 14 Norte 0 1006.5 -0.5 76
2019-03-31 13:00:00 14.4 8 Norte 12 Norte 0 1006.8 -0.2 70
2019-03-31 12:00:00 12.9 3 Nordeste 9 Nordeste 0 1007.1 0.3 74
2019-03-31 11:00:00 11.3 3 Norte 5 Norte 0 1007 0.2 83
2019-03-31 10:00:00 9 0 Calma 8 Sudoeste 0 1007 0.1 95
2019-03-31 09:00:00 8.2 2 Este 7 Sudeste 0 1006.8 -0.5 95
2019-03-31 08:00:00 7.9 2 Este 6 Nordeste 0 1006.8 -1.1 94
2019-03-31 07:00:00 8.3 3 Sudeste 3 Sudeste 0 1006.9 -1.5 93
2019-03-31 06:00:00 9 0 Calma 9 Sudeste 0 1007.3 -1.7 91
2019-03-31 05:00:00 9.8 3 Sudeste 8 Sur 0 1007.9 -1.6 92
2019-03-31 03:00:00 10.7 2 Sudeste 8 Noroeste 0 1009 -0.7 93
2019-03-31 01:00:00 10.5 2 Noroeste 5 Oeste 0 1009.5 -0.3 92
2019-03-31 00:00:00 10.7 4 Nordeste 6 Este 0 1009.4 -0.4 88
2019-03-30 23:00:00 11.4 3 Este 11 Sudeste 0 1009.7 0.1 87
2019-03-30 22:00:00 11.6 5 Sudeste 9 Sur 0 1009.8 0.1 86
2019-03-30 21:00:00 11.7 3 Este 9 Norte 0 1009.8 0.2 84
2019-03-30 20:00:00 12.2 5 Nordeste 12 Norte 0 1009.6 0.2 84
2019-03-30 19:00:00 12.5 7 Noroeste 15 Norte 0 1009.7 0.1 84
2019-03-30 18:00:00 13 10 Norte 17 Norte 0 1009.6 -0.1 83
2019-03-30 17:00:00 13.4 10 Noroeste 19 Noroeste 0 1009.4 -0.7 81
2019-03-30 16:00:00 13.8 11 Noroeste 23 Noroeste 0 1009.6 -0.9 80
2019-03-30 15:00:00 14.1 11 Noroeste 22 Oeste 0 1009.7 -1.2 79
2019-03-30 14:00:00 14.7 12 Norte 23 Noroeste 0 1010.1 -0.9 78
2019-03-30 13:00:00 14.8 11 Norte 17 Noroeste 0 1010.5 -0.5 71
2019-03-30 12:00:00 15.4 7 Norte 15 Norte 0 1010.9 -0.1 56
2019-03-30 11:00:00 15.1 7 Noroeste 11 Norte 0 1011 0.3 62
2019-03-30 10:00:00 15.4 4 Nordeste 6 Este 0 1011 0.6 58
2019-03-30 09:00:00 12.7 3 Este 6 Sudeste 0 1011 0.8 59
2019-03-30 08:00:00 9.5 3 Este 4 Sudeste 0 1010.7 0.3 69
2019-03-30 07:00:00 10.1 2 Sur 10 Sur 0 1010.4 -0.2 65
2019-03-30 06:00:00 10.2 0 Calma 5 Sur 0 1010.2 -0.7 66
2019-03-30 05:00:00 10.7 0 Calma 10 Sur 0 1010.4 -0.8 63
2019-03-30 04:00:00 10.6 5 Sur 8 Sur 0 1010.6 -0.9 66
2019-03-30 03:00:00 10.8 2 Sudeste 10 Sur 0 1010.9 -0.9 67
2019-03-30 02:00:00 11.7 3 Sudeste 12 Sudeste 0 1011.2 -0.8 64
2019-03-30 01:00:00 13.2 5 Sudeste 14 Sur 0 1011.5 -0.6 58
2019-03-30 00:00:00 13.8 11 Sur 16 Sur 0 1011.8 -0.3 51
2019-03-29 23:00:00 14.4 6 Sur 12 Sur 0 1012 0.2 49
2019-03-29 22:00:00 14.8 7 Sudoeste 12 Sudoeste 0 1012.1 0.4 49
2019-03-29 21:00:00 15 6 Sudoeste 8 Sudoeste 0 1012.1 0.5 48
2019-03-29 20:00:00 15.3 4 Sudoeste 7 Sudoeste 0 1011.8 0.2 56
2019-03-29 19:00:00 16 5 Oeste 13 Oeste 0 1011.7 -0.3 56
2019-03-29 18:00:00 16.9 9 Oeste 14 Noroeste 0 1011.6 -0.9 56
2019-03-29 17:00:00 17.7 8 Norte 14 Norte 0 1011.6 -1.3 55
2019-03-29 16:00:00 17.8 8 Noroeste 17 Noroeste 0 1012 -1.3 57
2019-03-29 15:00:00 17.5 10 Norte 19 Norte 0 1012.5 -1.2 61
2019-03-29 14:00:00 17.5 11 Norte 19 Norte 0 1012.9 -1.2 61
2019-03-29 13:00:00 17.9 9 Norte 14 Noroeste 0 1013.3 -1.2 51
2019-03-29 12:00:00 18.6 6 Norte 12 Este 0 1013.7 -0.9 51
2019-03-29 11:00:00 16.3 6 Este 13 Sudeste 0 1014.1 -0.3 52
2019-03-29 10:00:00 13.9 8 Este 15 Sudeste 0 1014.5 0 61
2019-03-29 09:00:00 11.8 8 Este 23 Sudeste 0 1014.6 -0.1 64
2019-03-29 08:00:00 10.3 18 Sudeste 26 Sudeste 0 1014.4 -0.6 69
2019-03-29 07:00:00 10.4 15 Sudeste 23 Sudeste 0 1014.5 -0.9 68
2019-03-29 06:00:00 10.2 14 Sudeste 21 Sudeste 0 1014.7 -1 71
2019-03-29 05:00:00 9.7 5 Sudeste 10 Sudeste 0 1015 -1 73
2019-03-29 04:00:00 10 6 Sudeste 11 Este 0 1015.4 -0.9 74
2019-03-29 03:00:00 10.3 5 Este 9 Este 0 1015.7 -1.1 72
2019-03-29 02:00:00 10.8 5 Este 9 Este 0 1016 -1 70
2019-03-29 01:00:00 11.3 3 Nordeste 12 Nordeste 0 1016.3 -0.9 67
2019-03-29 00:00:00 11.6 7 Nordeste 18 Nordeste 0 1016.8 -0.3 68
2019-03-28 23:00:00 11.9 11 Nordeste 23 Nordeste 0 1017 0.3 66
2019-03-28 22:00:00 12.2 15 Nordeste 35 Nordeste 0 1017.2 1 67
2019-03-28 21:00:00 12.9 25 Nordeste 36 Nordeste 0 1017.1 1.1 61
2019-03-28 20:00:00 14.4 22 Nordeste 37 Nordeste 0 1016.7 0.3 55
2019-03-28 19:00:00 16 24 Nordeste 40 Nordeste 0 1016.2 -0.8 48
2019-03-28 18:00:00 16.9 27 Nordeste 40 Nordeste 0 1016 -1.7 47
2019-03-28 17:00:00 17.8 24 Nordeste 38 Nordeste 0 1016.4 -1.9 44
2019-03-28 16:00:00 18.8 19 Nordeste 33 Nordeste 0 1017 -2.3 43
2019-03-28 15:00:00 18 18 Nordeste 37 Nordeste 0 1017.7 -2.2 52
2019-03-28 14:00:00 18.3 18 Nordeste 34 Nordeste 0 1018.3 -2.1 49
2019-03-28 13:00:00 18.4 10 Norte 19 Norte 0 1019.3 -1.2 42
2019-03-28 12:00:00 17.7 6 Este 13 Este 0 1019.9 -0.6 40
2019-03-28 11:00:00 15.7 3 Nordeste 9 Norte 0 1020.4 0.1 42
2019-03-28 10:00:00 14 6 Este 11 Este 0 1020.5 0.9 45
2019-03-28 09:00:00 12.2 4 Nordeste 8 Nordeste 0 1020.5 1.1 61
2019-03-28 08:00:00 9.3 4 Este 7 Norte 0 1020.3 1.2 72
2019-03-28 07:00:00 9.5 3 Norte 13 Este 0 1019.6 0.5 71
2019-03-28 06:00:00 9.9 5 Este 11 Nordeste 0 1019.4 0.3 66
2019-03-28 05:00:00 10.3 8 Nordeste 12 Nordeste 0 1019.1 -0.3 65
2019-03-28 04:00:00 10.9 6 Norte 9 Sudoeste 0 1019.1 -0.3 55
2019-03-28 03:00:00 11.2 4 Sudoeste 12 Este 0 1019.1 -0.2 59
2019-03-28 02:00:00 11.7 9 Nordeste 17 Nordeste 0 1019.4 0.1 57
2019-03-28 01:00:00 12 10 Nordeste 18 Este 0 1019.4 0.2 54
2019-03-28 00:00:00 11.8 10 Norte 20 Nordeste 0 1019.3 0.5 60
2019-03-27 23:00:00 11.8 12 Norte 27 Norte 0 1019.3 1.1 58
2019-03-27 22:00:00 12.4 15 Norte 26 Norte 0 1019.2 1.5 55
2019-03-27 21:00:00 13.1 10 Nordeste 23 Nordeste 0 1018.8 1.6 45
2019-03-27 20:00:00 14.1 15 Nordeste 40 Este 0 1018.2 1.1 46
2019-03-27 19:00:00 16 21 Nordeste 36 Este 0 1017.7 1 33
2019-03-27 18:00:00 17.7 7 Nordeste 24 Nordeste 0 1017.2 0.2 33
2019-03-27 17:00:00 18.8 14 Nordeste 38 Nordeste 0 1017.1 -0.3 41
2019-03-27 16:00:00 19.5 27 Nordeste 42 Nordeste 0 1016.7 -1.1 38
2019-03-27 15:00:00 18.5 33 Nordeste 47 Nordeste 0 1017 -0.9 42
2019-03-27 14:00:00 19.4 25 Nordeste 41 Este 0 1017.4 -0.5 38
2019-03-27 13:00:00 18.9 8 Nordeste 16 Norte 0 1017.8 0 39
2019-03-27 12:00:00 17.8 8 Nordeste 15 Nordeste 0 1017.9 0.5 37
2019-03-27 11:00:00 16.3 8 Nordeste 13 Este 0 1017.9 0.8 34
2019-03-27 10:00:00 14.8 5 Este 12 Sudeste 0 1017.8 1.3 39
2019-03-27 09:00:00 12.1 8 Sudeste 13 Sudeste 0 1017.4 1.2 44
2019-03-27 08:00:00 9.6 9 Sudeste 22 Sudeste 0 1017.1 1.4 50
2019-03-27 07:00:00 9.5 7 Sudeste 23 Sudeste 0 1016.5 0.8 49
2019-03-27 06:00:00 10 14 Sudeste 21 Sur 0 1016.2 0.6 48
2019-03-27 05:00:00 10.2 8 Sudeste 17 Este 0 1015.7 0.6 50
2019-03-27 04:00:00 10.6 8 Este 18 Sudeste 0 1015.7 0.7 49
2019-03-27 03:00:00 10.9 5 Este 15 Sudeste 0 1015.6 0.9 49
2019-03-27 02:00:00 11 5 Este 18 Este 0 1015.1 0.8 57
2019-03-27 01:00:00 11.7 17 Este 25 Este 0 1015 1 54
2019-03-27 00:00:00 11.7 6 Este 23 Este 0 1014.7 1.1 57
2019-03-26 23:00:00 11.9 16 Este 27 Este 0 1014.3 1.4 56
2019-03-26 22:00:00 11.9 16 Este 24 Este 0 1014 1.6 58
2019-03-26 21:00:00 12.4 18 Este 28 Este 0 1013.6 1.4 56
2019-03-26 20:00:00 13.4 14 Este 38 Este 0 1012.9 0.5 53
2019-03-26 19:00:00 14.7 29 Este 41 Este 0 1012.4 -0.5 46
2019-03-26 18:00:00 15.3 20 Este 44 Este 0 1012.2 -0.5 51
2019-03-26 17:00:00 16 28 Este 47 Nordeste 0 1012.4 -1 47
2019-03-26 16:00:00 17.3 22 Nordeste 40 Nordeste 0 1012.9 -1.1 43
2019-03-26 15:00:00 18 26 Nordeste 41 Este 0 1012.7 -1.6 39
2019-03-26 14:00:00 17.6 26 Nordeste 37 Este 0 1013.4 -1 38
2019-03-26 13:00:00 16.9 26 Nordeste 39 Nordeste 0 1014 -0.5 40
2019-03-26 12:00:00 16.3 23 Nordeste 38 Este 0 1014.3 -0.5 43
2019-03-26 11:00:00 15.3 18 Nordeste 31 Este 0 1014.4 -0.3 47
2019-03-26 10:00:00 14 20 Este 39 Este 0 1014.5 -0.4 54
2019-03-26 09:00:00 12.7 12 Este 32 Este 0 1014.8 -0.2 56
2019-03-26 08:00:00 11.3 21 Este 39 Este 0 1014.7 -0.5 60
2019-03-26 07:00:00 11 20 Este 32 Nordeste 0 1014.9 -0.9 60
2019-03-26 06:00:00 11 22 Este 37 Este 0 1015 -1.3 60
2019-03-26 05:00:00 10.9 26 Este 46 Nordeste 0 1015.2 -1.6 59
2019-03-26 04:00:00 10.7 21 Nordeste 41 Nordeste 0 1015.8 -0.9 61
2019-03-26 03:00:00 10.9 20 Nordeste 37 Nordeste 0 1016.3 -0.1 67
2019-03-26 02:00:00 11.1 17 Nordeste 36 Nordeste 0 1016.8 0.6 63
2019-03-26 01:00:00 11.5 25 Nordeste 42 Nordeste 0 1016.7 0.6 63
2019-03-26 00:00:00 11.7 25 Nordeste 39 Nordeste 0 1016.4 0.5 65
2019-03-25 23:00:00 12.1 21 Nordeste 36 Este 0 1016.2 0.6 59
2019-03-25 22:00:00 11.8 17 Nordeste 33 Norte 0 1016.1 0.6 64
2019-03-25 21:00:00 12.1 16 Nordeste 33 Este 0 1015.9 0.3 65
2019-03-25 20:00:00 12.9 16 Nordeste 35 Nordeste 0 1015.6 0.2 61
2019-03-25 19:00:00 13.8 21 Nordeste 47 Nordeste 0 1015.5 -0.2 60
2019-03-25 18:00:00 14.4 30 Nordeste 50 Este 0 1015.6 -0.4 61
2019-03-25 17:00:00 15.5 36 Este 52 Este 0 1015.4 -1.2 59
2019-03-25 16:00:00 16.3 31 Nordeste 47 Nordeste 0 1015.7 -1.5 57
2019-03-25 15:00:00 17 32 Nordeste 50 Nordeste 0 1016 -1.8 55
2019-03-25 14:00:00 17.5 26 Nordeste 41 Nordeste 0 1016.6 -1.4 51
2019-03-25 13:00:00 16.7 26 Nordeste 40 Nordeste 0 1017.2 -1 52
2019-03-25 12:00:00 16.4 23 Nordeste 33 Nordeste 0 1017.8 -0.2 55
2019-03-25 11:00:00 15.7 12 Este 22 Este 0 1018 0.2 60
2019-03-25 10:00:00 14 9 Este 20 Este 0 1018.2 0.9 68
2019-03-25 09:00:00 12.1 11 Este 20 Este 0 1018 0.8 74
2019-03-25 08:00:00 10.7 11 Este 18 Este 0 1017.8 0.5 79
2019-03-25 07:00:00 11.1 13 Este 22 Este 0 1017.3 -0.3 78
2019-03-25 06:00:00 11.5 16 Este 30 Este 0 1017.2 -0.7 76
2019-03-25 05:00:00 11.8 20 Nordeste 30 Nordeste 0 1017.3 -0.5 77
2019-03-25 04:00:00 11.8 21 Nordeste 34 Nordeste 0 1017.6 -0.5 76
2019-03-25 03:00:00 11.7 24 Nordeste 37 Nordeste 0 1017.9 -0.1 76
2019-03-25 02:00:00 11.6 21 Nordeste 31 Nordeste 0 1017.8 -0.7 75
2019-03-25 01:00:00 12.2 14 Nordeste 24 Nordeste 0 1018.1 -0.2 69
2019-03-25 00:00:00 12.5 16 Nordeste 32 Nordeste 0 1018 0 66
2019-03-24 23:00:00 12.8 17 Nordeste 28 Nordeste 0 1018.5 1.2 65
2019-03-24 22:00:00 13.5 23 Nordeste 31 Nordeste 0 1018.3 1.7 60
2019-03-24 21:00:00 14.3 14 Nordeste 40 Nordeste 0 1018 2 56
2019-03-24 20:00:00 15.2 27 Nordeste 41 Nordeste 0 1017.3 1.5 53
2019-03-24 19:00:00 16.7 29 Nordeste 41 Nordeste 0 1016.6 0.7 45
2019-03-24 18:00:00 17.1 21 Nordeste 38 Nordeste 0 1016 -0.4 50
2019-03-24 17:00:00 15.9 20 Nordeste 38 Norte 0 1015.8 -1.2 68
2019-03-24 16:00:00 16.4 17 Norte 34 Norte 0 1015.9 -1.9 69
2019-03-24 15:00:00 16.7 17 Norte 32 Norte 0 1016.4 -1.8 68
2019-03-24 14:00:00 19.8 13 Nordeste 26 Nordeste 0 1017 -1.1 52
2019-03-24 13:00:00 17.9 8 Norte 15 Norte 0 1017.8 -0.2 63
2019-03-24 12:00:00 16.9 6 Norte 12 Norte 0 1018.2 0.7 61
2019-03-24 11:00:00 16.3 6 Nordeste 13 Este 0 1018.1 1 58
2019-03-24 10:00:00 14.5 3 Nordeste 9 Nordeste 0 1018 1.3 63
2019-03-24 09:00:00 12.4 5 Sudeste 12 Sudeste 0 1017.5 0.8 67
2019-03-24 08:00:00 10.1 5 Este 9 Este 0 1017.1 0.5 76
2019-03-24 07:00:00 10.5 6 Sudeste 12 Sudeste 0 1016.7 0.3 74
2019-03-24 06:00:00 10.3 5 Sudeste 8 Sudeste 0 1016.7 0.1 76
2019-03-24 05:00:00 10.4 3 Sudeste 7 Sudeste 0 1016.6 -0.1 77
2019-03-24 04:00:00 11 6 Sudeste 11 Sudeste 0 1016.4 -0.5 78
2019-03-24 03:00:00 10.8 0 Calma 4 Sur 0 1016.6 -0.7 82
2019-03-24 02:00:00 11.4 0 Calma 4 Noroeste 0 1016.7 -0.6 88
2019-03-24 01:00:00 11.9 5 Oeste 9 Oeste 0 1016.9 -0.4 86
2019-03-24 00:00:00 12.4 4 Oeste 7 Oeste 0 1017.3 0.4 79
2019-03-23 23:00:00 12.9 6 Oeste 10 Oeste 0 1017.3 1 76
2019-03-23 22:00:00 13.8 7 Oeste 12 Oeste 0 1017.3 1.3 72
2019-03-23 21:00:00 14.4 5 Oeste 11 Oeste 0 1016.9 1.3 65
2019-03-23 20:00:00 15 6 Oeste 17 Oeste 0 1016.3 0.6 66
2019-03-23 19:00:00 15.6 14 Oeste 20 Oeste 0 1016 0 68
2019-03-23 18:00:00 16.5 12 Oeste 18 Oeste 0 1015.6 -0.7 60
2019-03-23 17:00:00 17.1 8 Noroeste 20 Noroeste 0 1015.7 -1.3 55
2019-03-23 16:00:00 16.6 9 Norte 19 Norte 0 1016 -1.3 59
2019-03-23 15:00:00 16.3 11 Noroeste 17 Norte 0 1016.3 -1.3 65
2019-03-23 14:00:00 16.5 11 Norte 16 Norte 0 1017 -0.8 64
2019-03-23 13:00:00 16.9 9 Norte 13 Norte 0 1017.3 -0.8 62
2019-03-23 12:00:00 17.7 6 Este 13 Este 0 1017.6 -0.5 52
2019-03-23 11:00:00 16 5 Sudeste 10 Sudeste 0 1017.8 -0.2 49
2019-03-23 10:00:00 12.9 3 Sudeste 13 Sudeste 0 1018.1 0 61
2019-03-23 09:00:00 10.8 6 Sudeste 11 Sur 0 1018.1 0 64
2019-03-23 08:00:00 9.2 8 Sudeste 14 Sur 0 1018 -0.3 70
2019-03-23 07:00:00 8.8 9 Sur 13 Sur 0 1018.1 -0.5 72
2019-03-23 06:00:00 8.6 9 Sudeste 16 Sudeste 0 1018.1 -0.8 75
2019-03-23 05:00:00 8.5 4 Sudeste 10 Sudeste 0 1018.3 -0.7 77
2019-03-23 04:00:00 8.5 3 Sudeste 7 Sudeste 0 1018.6 -0.5 78
2019-03-23 03:00:00 8.8 3 Sudeste 7 Sudeste 0 1018.9 -0.5 84
2019-03-23 02:00:00 9.9 3 Sudeste 9 Sur 0 1019 -0.7 83
2019-03-23 01:00:00 10.7 4 Sudeste 13 Sudeste 0 1019.1 -0.6 84
2019-03-23 00:00:00 11.2 11 Sudeste 15 Sudeste 0 1019.4 -0.1 86
2019-03-22 23:00:00 11.7 6 Sur 10 Sudeste 0 1019.7 0.6 87
2019-03-22 22:00:00 11.6 2 Nordeste 6 Este 0 1019.7 0.9 89
2019-03-22 21:00:00 12 0 Calma 5 Nordeste 0 1019.5 0.9 89
2019-03-22 20:00:00 12.3 3 Nordeste 9 Norte 0 1019.1 0.5 88
2019-03-22 19:00:00 12.8 6 Noroeste 16 Noroeste 0 1018.8 0 86
2019-03-22 18:00:00 13.2 10 Noroeste 16 Noroeste 0 1018.6 -0.1 84
2019-03-22 17:00:00 14.3 9 Noroeste 20 Noroeste 0 1018.6 -0.5 78
2019-03-22 16:00:00 15.3 13 Oeste 23 Oeste 0 1018.8 -0.4 77
2019-03-22 15:00:00 15.8 15 Oeste 24 Oeste 0 1018.7 -0.7 73
2019-03-22 14:00:00 16.3 11 Oeste 19 Oeste 0 1019.1 -0.2 65
2019-03-22 13:00:00 16.4 8 Noroeste 14 Norte 0 1019.2 0.2 42
2019-03-22 12:00:00 16.8 8 Norte 12 Noroeste 0 1019.4 0.8 50
2019-03-22 11:00:00 16 5 Nordeste 9 Este 0 1019.3 1 58
2019-03-22 10:00:00 13.9 6 Sudeste 16 Sudeste 0 1019 1.2 57
2019-03-22 09:00:00 11.2 6 Sudeste 13 Sur 0 1018.6 1.2 67
2019-03-22 08:00:00 8.8 4 Sudeste 10 Sur 0 1018.3 1.2 76
2019-03-22 07:00:00 9.5 8 Sur 13 Sur 0 1017.8 0.6 73
2019-03-22 06:00:00 8.8 5 Sur 9 Sur 0 1017.4 -0.1 78
2019-03-22 05:00:00 8.8 2 Este 11 Sudeste 0 1017.1 -0.3 78
2019-03-22 04:00:00 9.2 6 Sudeste 12 Sudeste 0 1017.2 -0.5 76
2019-03-22 03:00:00 9.5 6 Sudeste 18 Sudeste 0 1017.5 -0.3 74
2019-03-22 02:00:00 10 12 Sudeste 21 Sudeste 0 1017.4 -0.5 72
2019-03-22 01:00:00 10.3 9 Sudeste 17 Sudeste 0 1017.7 -0.1 72
2019-03-22 00:00:00 11 6 Sudeste 12 Este 0 1017.8 0.4 71
2019-03-21 23:00:00 11.4 9 Este 17 Este 0 1017.9 0.9 72
2019-03-21 22:00:00 12.1 8 Este 16 Este 0 1017.8 0.9 67
2019-03-21 21:00:00 12.8 10 Este 24 Este 0 1017.4 0.3 64
2019-03-21 20:00:00 13.6 15 Este 33 Nordeste 0 1017 -0.1 64
2019-03-21 19:00:00 14.7 19 Nordeste 32 Nordeste 0 1016.9 -0.8 59
2019-03-21 18:00:00 15.6 14 Nordeste 29 Nordeste 0 1017.1 -1.6 59
2019-03-21 17:00:00 16.6 19 Nordeste 28 Nordeste 0 1017.1 -2.6 52
2019-03-21 16:00:00 16.4 13 Norte 21 Norte 0 1017.7 -2.7 56
2019-03-21 15:00:00 16.6 12 Noroeste 18 Noroeste 0 1018.7 -2.4 48
2019-03-21 14:00:00 17.1 5 Norte 10 Nordeste 0 1019.7 -1.5 37
2019-03-21 13:00:00 16 7 Nordeste 14 Nordeste 0 1020.4 -0.9 46
2019-03-21 12:00:00 14.4 5 Nordeste 10 Norte 0 1021.1 -0.2 50
2019-03-21 11:00:00 12.8 3 Nordeste 10 Nordeste 0 1021.2 0.3 53
2019-03-21 10:00:00 11.9 4 Nordeste 10 Sudeste 0 1021.3 0.3 55
2019-03-21 09:00:00 9.9 8 Sudeste 17 Sur 0 1021.3 0.6 53
2019-03-21 08:00:00 8.2 7 Este 14 Sudeste 0 1020.9 0.2 59
2019-03-21 07:00:00 7.8 7 Sudeste 12 Sudeste 0 1021 -0.1 67
2019-03-21 06:00:00 8.1 8 Sudeste 13 Este 0 1020.7 -0.5 70
2019-03-21 05:00:00 8.6 9 Este 15 Este 0 1020.7 -0.5 73
2019-03-21 04:00:00 8.8 7 Este 11 Este 0 1021.1 -0.2 75
2019-03-21 03:00:00 9.5 9 Este 14 Este 0 1021.2 -0.1 73
2019-03-21 02:00:00 9.8 8 Este 18 Nordeste 0 1021.2 -0.5 74
2019-03-21 01:00:00 10.2 12 Este 22 Nordeste 0 1021.3 -0.5 71
2019-03-21 00:00:00 10.4 17 Nordeste 29 Nordeste 0 1021.3 -0.3 71